Midoy — JWYN — position and weather

sailwx.info

Track history (hours):
 
Tides and Currents Weather Stations Pressure Air Temp Water Temp Dewpoint Dewpoint Depression Visibility Wind Speed Wind Dir Waves Ship Positions

Midoy

Last reported at 2015-May-09 10:27 UTC. Time now 2015-May-30 02:33 UTC.
Position N 67°42' E 014°31'.
Warning: this ship's position is 20 days out of date.

Length 34 m; draft 3.5 m.

Type: Passenger vessel. MMSI: 257322400.

Date/timePositionNaut miles runAvg speedWind from/ knotsBaromVisibWave heightAir tempDewpointWater temp
2015-May-09 10:27N 67°42' E 014°31'1011.0
2015-May-09 09:33N 67°32' E 014°29'1110.9
2015-May-09 08:34N 67°22' E 014°26'5 4.6
2015-May-09 07:33N 67°17' E 014°23'0 0.0
2015-May-09 06:34N 67°17' E 014°23'0 0.0
2015-May-09 05:33N 67°17' E 014°23'0 0.0
2015-May-09 04:34N 67°17' E 014°23'0 0.0
2015-May-09 03:34N 67°17' E 014°23'0 0.0
2015-May-09 02:34N 67°17' E 014°23'0 0.0
2015-May-09 01:33N 67°17' E 014°23'0 0.0
2015-May-09 00:33N 67°17' E 014°23'0 0.0
2015-May-08 23:34N 67°17' E 014°23'0 0.0
2015-May-08 22:34N 67°17' E 014°23'0 0.0
2015-May-08 21:34N 67°17' E 014°23'0 0.0
2015-May-08 20:34N 67°17' E 014°23'0 0.0
2015-May-08 19:34N 67°17' E 014°23'0 0.0
2015-May-08 18:33N 67°17' E 014°23'1 0.9
2015-May-08 17:34N 67°17' E 014°21'1110.8
2015-May-08 16:33N 67°09' E 014°02'1110.6
2015-May-08 15:34N 67°01' E 013°43'13 9.9
2015-May-08 14:16N 66°52' E 013°21'2810.2
2015-May-08 11:32N 66°25' E 012°59'71 3.7
2015-May-07 16:33N 65°18' E 011°60'1111.1
2015-May-07 15:33N 65°08' E 011°50'1010.5
2015-May-07 14:33N 64°59' E 011°36'1111.0
2015-May-07 13:33N 64°52' E 011°16'  
2015-May-04 16:21N 64°03' E 010°03'14 3.7
2015-May-04 12:28N 63°52' E 009°41'1011.0
2015-May-04 11:33N 63°43' E 009°31'4 4.5
2015-May-04 10:33N 63°41' E 009°41'4 3.7
2015-May-04 09:32N 63°38' E 009°46'1110.8
2015-May-04 08:33N 63°29' E 009°58'1010.2
2015-May-04 07:33N 63°27' E 010°20'2 2.2
2015-May-04 06:33N 63°26' E 010°25'0 0.0
2015-May-04 05:33N 63°26' E 010°25'0 0.0
2015-May-04 04:33N 63°26' E 010°25'0 0.0
2015-May-04 03:33N 63°26' E 010°25'0 0.0
2015-May-04 02:33N 63°26' E 010°25'0 0.0
2015-May-04 01:33N 63°26' E 010°25'0 0.0
2015-May-04 00:33N 63°26' E 010°25'0 0.0
2015-May-03 23:33N 63°26' E 010°25'0 0.0
2015-May-03 22:33N 63°26' E 010°25'0 0.0
2015-May-03 21:33N 63°26' E 010°25'0 0.0
2015-May-03 20:33N 63°26' E 010°25'0 0.0
2015-May-03 19:33N 63°26' E 010°25'0 0.0
2015-May-03 18:33N 63°26' E 010°25'0 0.0
2015-May-03 17:33N 63°26' E 010°25'0 0.0
2015-May-03 16:33N 63°26' E 010°25'0 0.0
2015-May-03 15:33N 63°26' E 010°25'0 0.0
2015-May-03 14:33N 63°26' E 010°25'0 0.0
2015-May-03 13:33N 63°26' E 010°25'0 0.0
2015-May-03 12:33N 63°26' E 010°25'0 0.0
2015-May-03 11:33N 63°26' E 010°25'0 0.0
2015-May-03 10:33N 63°26' E 010°25'0 0.0
2015-May-03 09:33N 63°26' E 010°25'0 0.0
2015-May-03 08:33N 63°26' E 010°25'0 0.0
2015-May-03 07:33N 63°26' E 010°25'0 0.0
2015-May-03 06:32N 63°26' E 010°25'0 0.0
2015-May-03 05:33N 63°26' E 010°25'0 0.0
2015-May-03 04:33N 63°26' E 010°25'0 0.0
2015-May-03 03:30N 63°26' E 010°25'0 0.0
2015-May-03 02:27N 63°26' E 010°25'0 0.0
2015-May-03 01:33N 63°26' E 010°25'0 0.0
2015-May-03 00:33N 63°26' E 010°25'0 0.0
2015-May-02 23:30N 63°26' E 010°25'0 0.0
2015-May-02 22:33N 63°26' E 010°25'0 0.0
2015-May-02 21:33N 63°26' E 010°25'0 0.0
2015-May-02 20:33N 63°26' E 010°25'0 0.0
2015-May-02 19:33N 63°26' E 010°25'0 0.0
2015-May-02 18:32N 63°26' E 010°25'0 0.0
2015-May-02 17:33N 63°26' E 010°25'0 0.0
2015-May-02 16:33N 63°26' E 010°25'0 0.0
2015-May-02 15:33N 63°26' E 010°25'0 0.0
2015-May-02 14:32N 63°26' E 010°25'0 0.0
2015-May-02 13:33N 63°26' E 010°25'0 0.0
2015-May-02 12:32N 63°26' E 010°25'0 0.0
2015-May-02 11:33N 63°26' E 010°25'0 0.0
2015-May-02 10:32N 63°26' E 010°25'0 0.0
2015-May-02 09:33N 63°26' E 010°25'0 0.0
2015-May-02 08:32N 63°26' E 010°25'0 0.0
2015-May-02 07:32N 63°26' E 010°25'0 0.0
2015-May-02 06:32N 63°26' E 010°25'0 0.0
2015-May-02 05:32N 63°26' E 010°25'0 0.0
2015-May-02 04:32N 63°26' E 010°25'0 0.0
2015-May-02 03:32N 63°26' E 010°25'0 0.0
2015-May-02 02:32N 63°26' E 010°25'0 0.0
2015-May-02 01:33N 63°26' E 010°25'0 0.0
2015-May-02 00:32N 63°26' E 010°25'0 0.0
2015-May-01 23:32N 63°26' E 010°25'0 0.0
2015-May-01 22:32N 63°26' E 010°25'0 0.0
2015-May-01 21:32N 63°26' E 010°25'0 0.0
2015-May-01 20:32N 63°26' E 010°25'0 0.0
2015-May-01 19:32N 63°26' E 010°25'0 0.0
2015-May-01 18:32N 63°26' E 010°25'0 0.0
2015-May-01 17:32N 63°26' E 010°25'0 0.0
2015-May-01 16:32N 63°26' E 010°25'0 0.0
2015-May-01 15:32N 63°26' E 010°25'0 0.0
2015-May-01 14:32N 63°26' E 010°25'0 0.0
2015-May-01 13:32N 63°26' E 010°25'0 0.0
2015-May-01 12:32N 63°26' E 010°25'0 0.0
2015-May-01 11:32N 63°26' E 010°25'0 0.0
2015-May-01 10:32N 63°26' E 010°25'0 0.0
2015-May-01 09:32N 63°26' E 010°25'0 0.0
2015-May-01 08:32N 63°26' E 010°25'0 0.0
2015-May-01 07:32N 63°26' E 010°25'0 0.0
2015-May-01 06:32N 63°26' E 010°25'0 0.0
2015-May-01 05:32N 63°26' E 010°25'0 0.0
2015-May-01 04:32N 63°26' E 010°25'0 0.0
2015-May-01 03:32N 63°26' E 010°25'0 0.0
2015-May-01 02:32N 63°26' E 010°25'0 0.0
2015-May-01 01:32N 63°26' E 010°25'0 0.0
2015-May-01 00:32N 63°26' E 010°25'0 0.0
2015-Apr-30 23:32N 63°26' E 010°25'0 0.0
2015-Apr-30 22:32N 63°26' E 010°25'0 0.0
2015-Apr-30 21:32N 63°26' E 010°25'0 0.0
2015-Apr-30 20:32N 63°26' E 010°25'0 0.0
2015-Apr-30 19:32N 63°26' E 010°25'0 0.0
2015-Apr-30 18:32N 63°26' E 010°25'0 0.0
2015-Apr-30 17:32N 63°26' E 010°25'0 0.0
2015-Apr-30 16:32N 63°26' E 010°25'0 0.0
2015-Apr-30 15:32N 63°26' E 010°25'0 0.0
2015-Apr-30 14:32N 63°26' E 010°25'0 0.0
2015-Apr-30 13:32N 63°26' E 010°25'0 0.0
2015-Apr-30 12:32N 63°26' E 010°25'0 0.0
2015-Apr-30 11:32N 63°26' E 010°25'0 0.0
2015-Apr-30 10:32N 63°26' E 010°25'0 0.0
2015-Apr-30 09:32N 63°26' E 010°25'0 0.0
2015-Apr-30 08:32N 63°26' E 010°25'0 0.0
2015-Apr-30 07:32N 63°26' E 010°25'0 0.0
2015-Apr-30 06:29N 63°26' E 010°25'0 0.0
2015-Apr-30 05:32N 63°26' E 010°25'0 0.0
2015-Apr-30 04:32N 63°26' E 010°25'0 0.0
2015-Apr-30 03:32N 63°26' E 010°25'0 0.0
2015-Apr-30 02:32N 63°26' E 010°25'0 0.0
2015-Apr-30 01:29N 63°26' E 010°25'0 0.0
2015-Apr-30 00:32N 63°26' E 010°25'0 0.0
2015-Apr-29 23:32N 63°26' E 010°25'0 0.0
2015-Apr-29 22:32N 63°26' E 010°25'0 0.0
2015-Apr-29 21:32N 63°26' E 010°25'0 0.0
2015-Apr-29 20:32N 63°26' E 010°25'0 0.0
2015-Apr-29 19:32N 63°26' E 010°25'0 0.0
2015-Apr-29 18:31N 63°26' E 010°25'0 0.0
2015-Apr-29 17:31N 63°26' E 010°25'0 0.0
2015-Apr-29 16:31N 63°26' E 010°25'0 0.0
2015-Apr-29 15:32N 63°26' E 010°25'0 0.0
2015-Apr-29 14:31N 63°26' E 010°25'0 0.0
2015-Apr-29 13:32N 63°26' E 010°25'0 0.0
2015-Apr-29 12:31N 63°26' E 010°25'0 0.0
2015-Apr-29 11:31N 63°26' E 010°25'0 0.0
2015-Apr-29 10:32N 63°26' E 010°25'  
Track history (hours):
 
Tides and Currents Weather Stations Pressure Air Temp Water Temp Dewpoint Dewpoint Depression Visibility Wind Speed Wind Dir Waves Ship Positions

Midoy

Last reported at 2015-May-09 10:27 UTC. Time now 2015-May-30 02:33 UTC.
Position N 67°42' E 014°31'.
Warning: this ship's position is 20 days out of date.

Length 34 m; draft 3.5 m.

Type: Passenger vessel. MMSI: 257322400.

Date/timePositionNaut miles runAvg speedWind from/ knotsBaromVisibWave heightAir tempDewpointWater temp
2015-May-09 10:27N 67°42' E 014°31'1011.0
2015-May-09 09:33N 67°32' E 014°29'1110.9
2015-May-09 08:34N 67°22' E 014°26'5 4.6
2015-May-09 07:33N 67°17' E 014°23'0 0.0
2015-May-09 06:34N 67°17' E 014°23'0 0.0
2015-May-09 05:33N 67°17' E 014°23'0 0.0
2015-May-09 04:34N 67°17' E 014°23'0 0.0
2015-May-09 03:34N 67°17' E 014°23'0 0.0
2015-May-09 02:34N 67°17' E 014°23'0 0.0
2015-May-09 01:33N 67°17' E 014°23'0 0.0
2015-May-09 00:33N 67°17' E 014°23'0 0.0
2015-May-08 23:34N 67°17' E 014°23'0 0.0
2015-May-08 22:34N 67°17' E 014°23'0 0.0
2015-May-08 21:34N 67°17' E 014°23'0 0.0
2015-May-08 20:34N 67°17' E 014°23'0 0.0
2015-May-08 19:34N 67°17' E 014°23'0 0.0
2015-May-08 18:33N 67°17' E 014°23'1 0.9
2015-May-08 17:34N 67°17' E 014°21'1110.8
2015-May-08 16:33N 67°09' E 014°02'1110.6
2015-May-08 15:34N 67°01' E 013°43'13 9.9
2015-May-08 14:16N 66°52' E 013°21'2810.2
2015-May-08 11:32N 66°25' E 012°59'71 3.7
2015-May-07 16:33N 65°18' E 011°60'1111.1
2015-May-07 15:33N 65°08' E 011°50'1010.5
2015-May-07 14:33N 64°59' E 011°36'1111.0
2015-May-07 13:33N 64°52' E 011°16'  
2015-May-04 16:21N 64°03' E 010°03'14 3.7
2015-May-04 12:28N 63°52' E 009°41'1011.0
2015-May-04 11:33N 63°43' E 009°31'4 4.5
2015-May-04 10:33N 63°41' E 009°41'4 3.7
2015-May-04 09:32N 63°38' E 009°46'1110.8
2015-May-04 08:33N 63°29' E 009°58'1010.2
2015-May-04 07:33N 63°27' E 010°20'2 2.2
2015-May-04 06:33N 63°26' E 010°25'0 0.0
2015-May-04 05:33N 63°26' E 010°25'0 0.0
2015-May-04 04:33N 63°26' E 010°25'0 0.0
2015-May-04 03:33N 63°26' E 010°25'0 0.0
2015-May-04 02:33N 63°26' E 010°25'0 0.0
2015-May-04 01:33N 63°26' E 010°25'0 0.0
2015-May-04 00:33N 63°26' E 010°25'0 0.0
2015-May-03 23:33N 63°26' E 010°25'0 0.0
2015-May-03 22:33N 63°26' E 010°25'0 0.0
2015-May-03 21:33N 63°26' E 010°25'0 0.0
2015-May-03 20:33N 63°26' E 010°25'0 0.0
2015-May-03 19:33N 63°26' E 010°25'0 0.0
2015-May-03 18:33N 63°26' E 010°25'0 0.0
2015-May-03 17:33N 63°26' E 010°25'0 0.0
2015-May-03 16:33N 63°26' E 010°25'0 0.0
2015-May-03 15:33N 63°26' E 010°25'0 0.0
2015-May-03 14:33N 63°26' E 010°25'0 0.0
2015-May-03 13:33N 63°26' E 010°25'0 0.0
2015-May-03 12:33N 63°26' E 010°25'0 0.0
2015-May-03 11:33N 63°26' E 010°25'0 0.0
2015-May-03 10:33N 63°26' E 010°25'0 0.0
2015-May-03 09:33N 63°26' E 010°25'0 0.0
2015-May-03 08:33N 63°26' E 010°25'0 0.0
2015-May-03 07:33N 63°26' E 010°25'0 0.0
2015-May-03 06:32N 63°26' E 010°25'0 0.0
2015-May-03 05:33N 63°26' E 010°25'0 0.0
2015-May-03 04:33N 63°26' E 010°25'0 0.0
2015-May-03 03:30N 63°26' E 010°25'0 0.0
2015-May-03 02:27N 63°26' E 010°25'0 0.0
2015-May-03 01:33N 63°26' E 010°25'0 0.0
2015-May-03 00:33N 63°26' E 010°25'0 0.0
2015-May-02 23:30N 63°26' E 010°25'0 0.0
2015-May-02 22:33N 63°26' E 010°25'0 0.0
2015-May-02 21:33N 63°26' E 010°25'0 0.0
2015-May-02 20:33N 63°26' E 010°25'0 0.0
2015-May-02 19:33N 63°26' E 010°25'0 0.0
2015-May-02 18:32N 63°26' E 010°25'0 0.0
2015-May-02 17:33N 63°26' E 010°25'0 0.0
2015-May-02 16:33N 63°26' E 010°25'0 0.0
2015-May-02 15:33N 63°26' E 010°25'0 0.0
2015-May-02 14:32N 63°26' E 010°25'0 0.0
2015-May-02 13:33N 63°26' E 010°25'0 0.0
2015-May-02 12:32N 63°26' E 010°25'0 0.0
2015-May-02 11:33N 63°26' E 010°25'0 0.0
2015-May-02 10:32N 63°26' E 010°25'0 0.0
2015-May-02 09:33N 63°26' E 010°25'0 0.0
2015-May-02 08:32N 63°26' E 010°25'0 0.0
2015-May-02 07:32N 63°26' E 010°25'0 0.0
2015-May-02 06:32N 63°26' E 010°25'0 0.0
2015-May-02 05:32N 63°26' E 010°25'0 0.0
2015-May-02 04:32N 63°26' E 010°25'0 0.0
2015-May-02 03:32N 63°26' E 010°25'0 0.0
2015-May-02 02:32N 63°26' E 010°25'0 0.0
2015-May-02 01:33N 63°26' E 010°25'0 0.0
2015-May-02 00:32N 63°26' E 010°25'0 0.0
2015-May-01 23:32N 63°26' E 010°25'0 0.0
2015-May-01 22:32N 63°26' E 010°25'0 0.0
2015-May-01 21:32N 63°26' E 010°25'0 0.0
2015-May-01 20:32N 63°26' E 010°25'0 0.0
2015-May-01 19:32N 63°26' E 010°25'0 0.0
2015-May-01 18:32N 63°26' E 010°25'0 0.0
2015-May-01 17:32N 63°26' E 010°25'0 0.0
2015-May-01 16:32N 63°26' E 010°25'0 0.0
2015-May-01 15:32N 63°26' E 010°25'0 0.0
2015-May-01 14:32N 63°26' E 010°25'0 0.0
2015-May-01 13:32N 63°26' E 010°25'0 0.0
2015-May-01 12:32N 63°26' E 010°25'0 0.0
2015-May-01 11:32N 63°26' E 010°25'0 0.0
2015-May-01 10:32N 63°26' E 010°25'0 0.0
2015-May-01 09:32N 63°26' E 010°25'0 0.0
2015-May-01 08:32N 63°26' E 010°25'0 0.0
2015-May-01 07:32N 63°26' E 010°25'0 0.0
2015-May-01 06:32N 63°26' E 010°25'0 0.0
2015-May-01 05:32N 63°26' E 010°25'0 0.0
2015-May-01 04:32N 63°26' E 010°25'0 0.0
2015-May-01 03:32N 63°26' E 010°25'0 0.0
2015-May-01 02:32N 63°26' E 010°25'0 0.0
2015-May-01 01:32N 63°26' E 010°25'0 0.0
2015-May-01 00:32N 63°26' E 010°25'0 0.0
2015-Apr-30 23:32N 63°26' E 010°25'0 0.0
2015-Apr-30 22:32N 63°26' E 010°25'0 0.0
2015-Apr-30 21:32N 63°26' E 010°25'0 0.0
2015-Apr-30 20:32N 63°26' E 010°25'0 0.0
2015-Apr-30 19:32N 63°26' E 010°25'0 0.0
2015-Apr-30 18:32N 63°26' E 010°25'0 0.0
2015-Apr-30 17:32N 63°26' E 010°25'0 0.0
2015-Apr-30 16:32N 63°26' E 010°25'0 0.0
2015-Apr-30 15:32N 63°26' E 010°25'0 0.0
2015-Apr-30 14:32N 63°26' E 010°25'0 0.0
2015-Apr-30 13:32N 63°26' E 010°25'0 0.0
2015-Apr-30 12:32N 63°26' E 010°25'0 0.0
2015-Apr-30 11:32N 63°26' E 010°25'0 0.0
2015-Apr-30 10:32N 63°26' E 010°25'0 0.0
2015-Apr-30 09:32N 63°26' E 010°25'0 0.0
2015-Apr-30 08:32N 63°26' E 010°25'0 0.0
2015-Apr-30 07:32N 63°26' E 010°25'0 0.0
2015-Apr-30 06:29N 63°26' E 010°25'0 0.0
2015-Apr-30 05:32N 63°26' E 010°25'0 0.0
2015-Apr-30 04:32N 63°26' E 010°25'0 0.0
2015-Apr-30 03:32N 63°26' E 010°25'0 0.0
2015-Apr-30 02:32N 63°26' E 010°25'0 0.0
2015-Apr-30 01:29N 63°26' E 010°25'0 0.0
2015-Apr-30 00:32N 63°26' E 010°25'0 0.0
2015-Apr-29 23:32N 63°26' E 010°25'0 0.0
2015-Apr-29 22:32N 63°26' E 010°25'0 0.0
2015-Apr-29 21:32N 63°26' E 010°25'0 0.0
2015-Apr-29 20:32N 63°26' E 010°25'0 0.0
2015-Apr-29 19:32N 63°26' E 010°25'0 0.0
2015-Apr-29 18:31N 63°26' E 010°25'0 0.0
2015-Apr-29 17:31N 63°26' E 010°25'0 0.0
2015-Apr-29 16:31N 63°26' E 010°25'0 0.0
2015-Apr-29 15:32N 63°26' E 010°25'0 0.0
2015-Apr-29 14:31N 63°26' E 010°25'0 0.0
2015-Apr-29 13:32N 63°26' E 010°25'0 0.0
2015-Apr-29 12:31N 63°26' E 010°25'0 0.0
2015-Apr-29 11:31N 63°26' E 010°25'0 0.0
2015-Apr-29 10:32N 63°26' E 010°25'  

Dump ship's entire track history